createdAt,value
2023-01-25T00:01:35.343Z,37.83
2023-01-25T00:04:21.958Z,39.33
2023-01-25T00:07:07.891Z,41.78
2023-01-25T00:09:53.966Z,43.08
2023-01-25T00:12:39.871Z,38.50
2023-01-25T00:15:25.967Z,45.90
2023-01-25T00:18:12.234Z,47.05
2023-01-25T00:20:58.422Z,38.78
2023-01-25T00:23:44.642Z,45.97
2023-01-25T00:26:31.926Z,42.80
2023-01-25T00:29:18.418Z,46.10
2023-01-25T00:32:08.447Z,45.60
2023-01-25T00:34:54.894Z,41.13
2023-01-25T00:37:43.787Z,44.25
2023-01-25T00:40:30.020Z,44.53
2023-01-25T00:43:18.656Z,37.85
2023-01-25T00:46:04.905Z,47.70
2023-01-25T00:48:54.818Z,45.17
2023-01-25T00:51:41.186Z,48.83
2023-01-25T00:54:28.094Z,52.13
2023-01-25T00:57:14.301Z,50.53
2023-01-25T01:00:00.597Z,62.80
2023-01-25T01:02:46.602Z,49.38
2023-01-25T01:05:36.326Z,51.17
2023-01-25T01:08:22.395Z,50.25
2023-01-25T01:11:09.744Z,53.10
2023-01-25T01:13:57.785Z,52.03
2023-01-25T01:16:44.373Z,48.03
2023-01-25T01:19:30.948Z,44.90
2023-01-25T01:22:17.135Z,48.67
2023-01-25T01:25:03.542Z,42.08
2023-01-25T01:27:49.489Z,51.58
2023-01-25T01:30:36.782Z,52.08
2023-01-25T01:33:23.274Z,42.17
2023-01-25T01:36:10.276Z,52.63
2023-01-25T01:38:56.677Z,54.55
2023-01-25T01:41:43.268Z,48.78
2023-01-25T01:44:50.886Z,45.15
2023-01-25T01:47:47.148Z,49.72
2023-01-25T01:50:35.915Z,58.03
2023-01-25T01:53:25.280Z,46.25
2023-01-25T01:56:13.920Z,48.53
2023-01-25T01:59:01.075Z,50.83
2023-01-25T02:01:47.737Z,54.85
2023-01-25T02:04:34.299Z,50.25
2023-01-25T02:07:28.512Z,62.22
2023-01-25T02:10:16.067Z,49.08
2023-01-25T02:13:04.834Z,46.95
2023-01-25T02:15:52.612Z,43.22
2023-01-25T02:18:39.092Z,46.65
2023-01-25T02:21:25.808Z,44.05
2023-01-25T02:24:21.710Z,48.10
2023-01-25T02:27:07.967Z,54.55
2023-01-25T02:29:54.229Z,50.25
2023-01-25T02:32:42.302Z,41.45
2023-01-25T02:35:37.588Z,48.28
2023-01-25T02:38:23.630Z,44.92
2023-01-25T02:41:16.712Z,43.25
2023-01-25T02:44:04.654Z,48.70
2023-01-25T02:46:50.835Z,42.17
2023-01-25T02:49:37.541Z,47.67
2023-01-25T02:52:23.926Z,56.92
2023-01-25T02:55:10.444Z,47.10
2023-01-25T02:57:59.721Z,38.53
2023-01-25T03:00:46.313Z,45.28
2023-01-25T03:03:33.314Z,37.17
2023-01-25T03:06:20.573Z,40.08
2023-01-25T03:09:09.404Z,46.88
2023-01-25T03:11:59.216Z,42.38
2023-01-25T03:14:45.375Z,46.40
2023-01-25T03:17:31.612Z,44.13
2023-01-25T03:20:17.677Z,44.90
2023-01-25T03:23:03.865Z,35.45
2023-01-25T03:25:51.098Z,36.97
2023-01-25T03:28:38.780Z,40.53
2023-01-25T03:31:25.355Z,42.83
2023-01-25T03:34:11.450Z,38.03
2023-01-25T03:37:01.145Z,33.50
2023-01-25T03:39:50.729Z,34.85
2023-01-25T03:42:38.867Z,33.95
2023-01-25T03:45:25.510Z,44.25
2023-01-25T03:48:11.977Z,39.03
2023-01-25T03:50:59.548Z,39.42
2023-01-25T03:53:47.413Z,33.97
2023-01-25T03:56:36.204Z,39.00
2023-01-25T03:59:37.544Z,37.88
2023-01-25T04:02:24.205Z,37.80
2023-01-25T04:05:10.827Z,39.65
2023-01-25T04:07:57.299Z,42.83
2023-01-25T04:10:53.157Z,40.55
2023-01-25T04:13:39.624Z,40.50
2023-01-25T04:16:31.689Z,37.95
2023-01-25T04:19:40.640Z,35.70
2023-01-25T04:22:30.738Z,43.03
2023-01-25T04:25:16.834Z,40.30
2023-01-25T04:28:08.559Z,47.47
2023-01-25T04:30:55.421Z,34.58
2023-01-25T04:33:47.753Z,36.13
2023-01-25T04:36:37.010Z,33.88
2023-01-25T04:39:23.661Z,40.33
2023-01-25T04:42:12.102Z,43.20
2023-01-25T04:44:58.660Z,36.38
2023-01-25T04:47:45.994Z,41.55
2023-01-25T04:50:32.228Z,36.55
2023-01-25T04:53:19.636Z,35.53
2023-01-25T04:56:06.675Z,45.00
2023-01-25T04:59:01.067Z,38.75
2023-01-25T05:01:47.654Z,36.60
2023-01-25T05:04:33.821Z,32.13
2023-01-25T05:07:19.947Z,35.95
2023-01-25T05:10:07.080Z,34.10
2023-01-25T05:12:55.335Z,37.92
2023-01-25T05:15:41.390Z,37.90
2023-01-25T05:18:31.098Z,32.88
2023-01-25T05:21:45.130Z,40.40
2023-01-25T05:24:33.973Z,37.67
2023-01-25T05:27:24.218Z,37.05
2023-01-25T05:30:13.452Z,38.58
2023-01-25T05:33:18.369Z,39.38
2023-01-25T05:36:05.215Z,40.08
2023-01-25T05:38:54.453Z,39.22
2023-01-25T05:41:40.585Z,51.25
2023-01-25T05:44:27.297Z,43.25
2023-01-25T05:47:15.338Z,47.05
2023-01-25T05:50:02.170Z,44.00
2023-01-25T05:53:00.962Z,51.63
2023-01-25T05:55:48.595Z,49.95
2023-01-25T05:58:36.584Z,56.92
2023-01-25T06:01:22.877Z,59.80
2023-01-25T06:04:16.729Z,51.30
2023-01-25T06:07:04.853Z,53.67
2023-01-25T06:09:52.131Z,50.47
2023-01-25T06:12:39.808Z,53.47
2023-01-25T06:15:27.080Z,55.58
2023-01-25T06:18:17.926Z,57.10
2023-01-25T06:21:23.101Z,53.58
2023-01-25T06:24:09.333Z,49.95
2023-01-25T06:28:53.585Z,53.22
2023-01-25T06:30:32.364Z,56.72
2023-01-25T06:33:18.654Z,56.30
2023-01-25T06:36:06.868Z,59.05
2023-01-25T06:38:53.991Z,61.28
2023-01-25T06:41:40.242Z,55.08
2023-01-25T06:59:44.974Z,67.28
2023-01-25T07:06:23.798Z,63.83
2023-01-25T07:17:10.922Z,58.85
2023-01-25T07:28:16.441Z,58.40
2023-01-25T07:31:07.241Z,54.30
2023-01-25T07:33:54.938Z,55.95
2023-01-25T07:36:41.950Z,57.92
2023-01-25T07:39:28.466Z,55.00
2023-01-25T07:42:15.349Z,58.13
2023-01-25T07:45:10.753Z,57.78
2023-01-25T07:47:58.656Z,53.67
2023-01-25T07:50:46.802Z,59.58
2023-01-25T07:53:32.843Z,56.40
2023-01-25T07:56:19.703Z,52.17
2023-01-25T07:59:08.455Z,50.97
2023-01-25T08:01:54.967Z,49.78
2023-01-25T08:04:42.652Z,49.30
2023-01-25T08:07:29.508Z,49.00
2023-01-25T08:10:16.206Z,50.75
2023-01-25T08:13:02.549Z,57.00
2023-01-25T08:15:54.894Z,53.92
2023-01-25T08:18:40.992Z,47.35
2023-01-25T08:21:31.634Z,54.20
2023-01-25T08:24:20.106Z,51.25
2023-01-25T08:27:06.790Z,50.17
2023-01-25T08:29:53.940Z,53.35
2023-01-25T08:32:40.304Z,55.28
2023-01-25T08:35:26.721Z,60.10
2023-01-25T08:38:16.970Z,50.47
2023-01-25T08:41:14.463Z,51.42
2023-01-25T08:44:01.003Z,50.35
2023-01-25T08:46:47.526Z,50.97
2023-01-25T08:49:34.633Z,51.28
2023-01-25T08:52:22.931Z,51.40
2023-01-25T08:55:09.453Z,52.10
2023-01-25T08:57:56.694Z,49.17
2023-01-25T09:00:45.173Z,51.90
2023-01-25T09:03:31.894Z,47.92
2023-01-25T09:06:18.515Z,52.17
2023-01-25T09:09:05.177Z,52.15
2023-01-25T09:11:51.729Z,59.42
2023-01-25T09:14:40.396Z,49.60
2023-01-25T09:30:10.912Z,42.83
2023-01-25T09:36:33.511Z,46.85
2023-01-25T09:40:09.829Z,48.22
2023-01-25T09:43:02.077Z,47.83
2023-01-25T09:45:48.658Z,46.15
2023-01-25T09:48:44.063Z,49.67
2023-01-25T09:51:50.681Z,44.80
2023-01-25T09:54:47.843Z,46.92
2023-01-25T09:57:37.568Z,49.80
2023-01-25T10:00:27.490Z,48.25
2023-01-25T10:03:20.473Z,49.05
2023-01-25T10:06:06.810Z,43.88
2023-01-25T10:09:28.723Z,51.50
2023-01-25T10:12:17.669Z,52.40
2023-01-25T10:15:08.105Z,51.45
2023-01-25T10:18:01.329Z,43.30
2023-01-25T10:20:55.645Z,43.30
2023-01-25T10:24:14.432Z,45.90
2023-01-25T10:27:11.396Z,44.40
2023-01-25T10:29:59.286Z,47.88
2023-01-25T10:32:55.449Z,49.13
2023-01-25T10:35:47.229Z,47.05
2023-01-25T10:38:45.473Z,50.70
2023-01-25T10:41:41.869Z,47.38
2023-01-25T10:44:29.150Z,51.33
2023-01-25T10:47:18.554Z,44.78
2023-01-25T10:50:05.776Z,40.50
2023-01-25T10:52:59.364Z,50.22
2023-01-25T10:58:31.952Z,43.53
2023-01-25T11:01:27.957Z,38.90
2023-01-25T11:04:35.758Z,38.97
2023-01-25T11:07:30.989Z,34.30
2023-01-25T11:10:38.037Z,38.33
2023-01-25T11:13:33.503Z,33.70
2023-01-25T11:16:20.014Z,34.45
2023-01-25T11:19:24.905Z,34.72
2023-01-25T11:22:20.452Z,32.38
2023-01-25T11:25:25.393Z,30.63
2023-01-25T11:28:18.097Z,33.90
2023-01-25T11:31:04.714Z,32.50
2023-01-25T11:33:51.276Z,35.22
2023-01-25T11:36:43.021Z,36.78
2023-01-25T11:39:35.429Z,30.40
2023-01-25T11:42:40.549Z,30.67
2023-01-25T11:45:36.303Z,28.25
2023-01-25T11:48:43.714Z,31.70
2023-01-25T11:51:50.691Z,32.42
2023-01-25T11:54:51.837Z,26.88
2023-01-25T11:57:49.609Z,27.65
2023-01-25T12:00:36.299Z,24.70
2023-01-25T12:03:41.575Z,23.63
2023-01-25T12:06:43.430Z,24.33
2023-01-25T12:09:43.873Z,26.95
2023-01-25T12:12:36.173Z,23.55
2023-01-25T12:15:29.254Z,22.08
2023-01-25T12:18:28.217Z,20.40
2023-01-25T12:21:33.280Z,21.17
2023-01-25T12:24:23.059Z,21.48
2023-01-25T12:27:19.211Z,17.17
2023-01-25T12:30:14.700Z,19.30
2023-01-25T12:33:14.236Z,19.15
2023-01-25T12:36:20.686Z,21.63
2023-01-25T12:39:13.341Z,18.20
2023-01-25T12:42:09.059Z,20.92
2023-01-25T12:45:01.375Z,20.10
2023-01-25T12:47:51.848Z,20.20
2023-01-25T12:50:41.287Z,21.10
2023-01-25T12:53:30.401Z,19.90
2023-01-25T12:56:35.272Z,22.55
2023-01-25T12:59:28.319Z,27.63
2023-01-25T13:02:38.600Z,20.77
2023-01-25T13:05:34.179Z,23.20
2023-01-25T13:08:38.497Z,21.33
2023-01-25T13:11:28.221Z,23.45
2023-01-25T13:14:20.766Z,23.50
2023-01-25T13:17:26.080Z,23.50
2023-01-25T13:20:31.247Z,27.10
2023-01-25T13:23:36.152Z,23.27
2023-01-25T13:26:22.595Z,19.08
2023-01-25T13:29:30.280Z,23.77
2023-01-25T13:32:26.025Z,25.38
2023-01-25T13:35:31.320Z,24.70
2023-01-25T13:38:25.359Z,21.25
2023-01-25T13:41:17.210Z,24.42
2023-01-25T13:44:14.518Z,24.60
2023-01-25T13:47:03.231Z,26.55
2023-01-25T13:49:58.729Z,26.70
2023-01-25T13:52:57.318Z,32.10
2023-01-25T13:55:47.846Z,31.42
2023-01-25T14:03:03.478Z,31.50
2023-01-25T14:06:10.307Z,28.25
2023-01-25T14:09:38.445Z,33.05
2023-01-25T14:29:43.783Z,31.52
2023-01-25T14:36:25.300Z,31.27
2023-01-25T15:02:56.631Z,37.78
2023-01-25T15:06:01.989Z,34.53
2023-01-25T15:17:09.146Z,32.10
2023-01-25T15:24:35.344Z,34.97
2023-01-25T15:31:32.889Z,39.28
2023-01-25T15:34:25.296Z,34.22
2023-01-25T15:37:11.647Z,38.70
2023-01-25T15:39:58.596Z,32.88
2023-01-25T15:42:45.594Z,35.45
2023-01-25T15:45:36.781Z,35.58
2023-01-25T15:48:31.894Z,37.78
2023-01-25T15:51:19.092Z,36.70
2023-01-25T15:54:07.667Z,33.03
2023-01-25T15:56:58.909Z,36.03
2023-01-25T15:59:46.139Z,34.70
2023-01-25T16:02:32.340Z,31.70
2023-01-25T16:05:19.499Z,32.58
2023-01-25T16:08:10.296Z,31.40
2023-01-25T16:10:56.658Z,33.90
2023-01-25T16:13:42.775Z,31.85
2023-01-25T16:16:35.548Z,32.17
2023-01-25T16:19:23.097Z,33.80
2023-01-25T16:22:09.525Z,34.30
2023-01-25T16:24:55.856Z,27.50
2023-01-25T16:27:44.608Z,26.40
2023-01-25T16:30:34.725Z,28.73
2023-01-25T16:33:25.548Z,30.95
2023-01-25T16:36:12.916Z,30.33
2023-01-25T16:39:10.935Z,31.08
2023-01-25T16:41:57.885Z,27.50
2023-01-25T16:44:45.371Z,26.65
2023-01-25T16:47:37.473Z,28.95
2023-01-25T16:50:24.512Z,28.15
2023-01-25T16:53:13.905Z,31.35
2023-01-25T16:56:01.489Z,29.77
2023-01-25T16:58:48.153Z,28.33
2023-01-25T17:01:35.118Z,32.72
2023-01-25T17:04:24.998Z,28.70
2023-01-25T17:07:13.031Z,28.85
2023-01-25T17:09:59.339Z,31.17
2023-01-25T17:12:46.139Z,31.88
2023-01-25T17:15:34.891Z,28.95
2023-01-25T17:18:22.040Z,26.77
2023-01-25T17:21:14.677Z,29.25
2023-01-25T17:24:09.518Z,20.42
2023-01-25T17:27:01.148Z,31.42
2023-01-25T17:29:47.386Z,28.35
2023-01-25T17:32:34.323Z,30.13
2023-01-25T17:35:21.305Z,29.80
2023-01-25T17:38:11.402Z,26.08
2023-01-25T17:40:57.719Z,27.58
2023-01-25T17:43:54.008Z,29.67
2023-01-25T17:46:40.206Z,29.58
2023-01-25T17:49:26.574Z,30.77
2023-01-25T17:52:15.719Z,27.15
2023-01-25T17:55:01.838Z,32.08
2023-01-25T17:57:51.531Z,28.70
2023-01-25T18:00:37.877Z,34.10
2023-01-25T18:03:24.297Z,32.00
2023-01-25T18:06:10.881Z,31.85
2023-01-25T18:09:00.113Z,33.15
2023-01-25T18:11:46.351Z,33.78
2023-01-25T18:14:32.521Z,31.90
2023-01-25T18:17:18.721Z,32.28
2023-01-25T18:20:06.079Z,30.25
2023-01-25T18:22:52.492Z,33.63
2023-01-25T18:25:38.869Z,34.85
2023-01-25T18:28:26.215Z,33.10
2023-01-25T18:31:34.888Z,35.63
2023-01-25T18:34:21.343Z,39.15
2023-01-25T18:37:18.017Z,42.63
2023-01-25T18:40:06.434Z,41.38
2023-01-25T18:42:53.235Z,47.95
2023-01-25T18:45:39.615Z,46.58
2023-01-25T18:48:32.817Z,45.90
2023-01-25T18:51:19.394Z,52.90
2023-01-25T18:54:06.682Z,49.47
2023-01-25T18:56:55.312Z,58.95
2023-01-25T18:59:42.054Z,55.17
2023-01-25T19:02:28.365Z,55.65
2023-01-25T19:05:18.714Z,56.20
2023-01-25T19:08:05.131Z,54.47
2023-01-25T19:10:53.687Z,60.47
2023-01-25T19:13:40.234Z,57.88
2023-01-25T19:16:28.909Z,50.22
2023-01-25T19:19:15.604Z,46.65
2023-01-25T19:22:02.283Z,43.88
2023-01-25T19:24:48.531Z,41.97
2023-01-25T19:27:35.406Z,46.03
2023-01-25T19:30:22.290Z,40.58
2023-01-25T19:33:08.752Z,37.40
2023-01-25T19:36:00.118Z,36.33
2023-01-25T19:38:47.791Z,37.05
2023-01-25T19:41:34.409Z,38.60
2023-01-25T19:44:21.554Z,40.22
2023-01-25T19:47:08.301Z,40.92
2023-01-25T19:49:55.558Z,34.30
2023-01-25T19:52:42.053Z,35.53
2023-01-25T19:55:28.333Z,37.67
2023-01-25T19:58:14.770Z,36.78
2023-01-25T20:01:11.135Z,35.53
2023-01-25T20:03:58.099Z,34.22
2023-01-25T20:06:44.489Z,34.92
2023-01-25T20:09:30.779Z,34.63
2023-01-25T20:12:17.543Z,33.33
2023-01-25T20:15:03.637Z,31.52
2023-01-25T20:17:49.950Z,31.00
2023-01-25T20:20:35.908Z,31.70
2023-01-25T20:23:22.391Z,33.80
2023-01-25T20:26:13.298Z,31.67
2023-01-25T20:29:00.048Z,31.90
2023-01-25T20:31:46.857Z,30.20
2023-01-25T20:34:32.846Z,38.95
2023-01-25T20:37:19.802Z,33.75
2023-01-25T20:40:07.109Z,34.97
2023-01-25T20:42:53.164Z,38.63
2023-01-25T20:45:39.404Z,31.75
2023-01-25T20:48:25.480Z,37.22
2023-01-25T20:51:17.239Z,33.53
2023-01-25T20:54:03.506Z,31.08
2023-01-25T20:56:50.537Z,30.98
2023-01-25T20:59:37.067Z,35.03
2023-01-25T21:02:23.490Z,33.85
2023-01-25T21:05:09.957Z,29.77
2023-01-25T21:07:56.728Z,30.17
2023-01-25T21:10:47.735Z,26.83
2023-01-25T21:13:34.284Z,31.13
2023-01-25T21:16:24.049Z,28.70
2023-01-25T21:19:11.421Z,31.08
2023-01-25T21:21:58.201Z,25.05
2023-01-25T21:24:44.721Z,30.63
2023-01-25T21:27:30.980Z,27.75
2023-01-25T21:30:17.642Z,28.02
2023-01-25T21:33:04.563Z,26.13
2023-01-25T21:35:55.584Z,28.58
2023-01-25T21:38:42.497Z,27.60
2023-01-25T21:41:30.291Z,28.60
2023-01-25T21:44:34.848Z,27.05
2023-01-25T21:47:30.455Z,28.17
2023-01-25T21:50:36.558Z,26.48
2023-01-25T21:53:23.260Z,26.75
2023-01-25T21:56:09.420Z,24.90
2023-01-25T21:58:55.765Z,24.38
2023-01-25T22:01:45.077Z,22.25
2023-01-25T22:04:36.201Z,27.58
2023-01-25T22:07:22.663Z,21.90
2023-01-25T22:10:10.228Z,21.95
2023-01-25T22:12:57.563Z,21.35
2023-01-25T22:15:44.115Z,27.35
2023-01-25T22:18:35.742Z,24.33
2023-01-25T22:21:23.284Z,27.50
2023-01-25T22:24:13.332Z,22.45
2023-01-25T22:27:09.185Z,20.55
2023-01-25T22:29:55.826Z,25.50
2023-01-25T22:32:42.099Z,26.80
2023-01-25T22:35:28.677Z,20.85
2023-01-25T22:38:14.932Z,23.10
2023-01-25T22:41:08.290Z,21.23
2023-01-25T22:46:40.935Z,25.70
2023-01-25T22:49:28.030Z,23.65
2023-01-25T22:52:14.639Z,23.00
2023-01-25T22:55:01.347Z,23.17
2023-01-25T22:57:48.254Z,21.10
2023-01-25T23:00:34.560Z,24.02
2023-01-25T23:03:20.758Z,20.50
2023-01-25T23:06:09.634Z,24.42
2023-01-25T23:08:56.920Z,20.63
2023-01-25T23:11:43.527Z,23.60
2023-01-25T23:14:51.984Z,25.60
2023-01-25T23:17:57.033Z,18.15
2023-01-25T23:20:44.538Z,20.85
2023-01-25T23:23:30.715Z,19.98
2023-01-25T23:26:18.115Z,20.30
2023-01-25T23:29:05.303Z,17.90
2023-01-25T23:31:51.862Z,17.67
2023-01-25T23:34:40.343Z,18.75
2023-01-25T23:37:26.831Z,18.30
2023-01-25T23:40:14.871Z,20.00
2023-01-25T23:43:01.241Z,20.15
2023-01-25T23:45:47.820Z,18.63
2023-01-25T23:48:34.651Z,17.27
2023-01-25T23:51:21.255Z,17.00
2023-01-25T23:54:07.528Z,24.50
2023-01-25T23:56:54.690Z,20.60
2023-01-25T23:59:40.985Z,19.00
